CSD2 weather

Public forecast

Using degrees Celsius for public forecast. Weather courtesy of forecast.io.

Closest aviation weather report (METAR) to Sundre (Hospital & Health Care Centre) Heliport

Closest report is Red Deer Regional Airport, 35.5 nm (65.8 km) NE. Retrieved 2020/08/15 07:00 UTC (43 minutes ago):

CYQF 150700Z AUTO 10002KT 9SM -RA OVC085 14/10 A3004 RMK SLP181 DENSITY ALT 3300FT

Closest aviation forecast (TAF) to Sundre (Hospital & Health Care Centre) Heliport

Closest forecast is Red Deer Regional Airport, 35.5 nm (65.8 km) NE. Retrieved 2020/08/15 06:42 UTC (1 hour ago):

TAF CYQF 150538Z 1506/1518 VRB03KT P6SM BKN080 OVC240 TEMPO 1506/1518 SCT080 BKN240 RMK FCST BASED ON AUTO OBS NXT FCST BY 151200Z